Akebono — JG5644 — position and weather

sailwx.info

Track history (hours):
 
Tides and Currents Weather Stations Pressure Air Temp Water Temp Dewpoint Dewpoint Depression Visibility Wind Speed Wind Dir Waves Ship Positions

Akebono

Last reported at 2016-May-26 22:34 UTC. Time now 2016-May-26 22:35 UTC.
Position N 35°26' E 139°44'.

Length 33 m; draft 4.4 m.

Type: Tug. MMSI: 431000233.

Date/timePositionNaut miles runAvg speedWind from/ knotsBaromVisibWave heightAir tempDewpointWater temp
2016-May-26 22:34N 35°26' E 139°44'2 2.3
2016-May-26 21:33N 35°28' E 139°42'0 0.5
2016-May-26 20:34N 35°28' E 139°41'2 0.2
2016-May-26 11:30N 35°27' E 139°39'0 0.0
2016-May-26 10:34N 35°27' E 139°39'2 1.6
2016-May-26 09:33N 35°27' E 139°41'1 0.6
2016-May-26 08:33N 35°27' E 139°41'1 1.2
2016-May-26 07:33N 35°26' E 139°42'1 1.3
2016-May-26 06:33N 35°27' E 139°41'1 1.2
2016-May-26 05:33N 35°27' E 139°39'0 0.0
2016-May-26 04:33N 35°27' E 139°39'0 0.0
2016-May-26 03:33N 35°27' E 139°39'0 0.0
2016-May-26 02:33N 35°27' E 139°39'0 0.0
2016-May-26 01:33N 35°27' E 139°39'0 0.0
2016-May-26 00:33N 35°27' E 139°39'0 0.0
2016-May-25 23:33N 35°27' E 139°39'2 1.9
2016-May-25 22:33N 35°27' E 139°42'2 1.9
2016-May-25 21:33N 35°27' E 139°39'0 0.0
2016-May-25 20:33N 35°27' E 139°39'0 0.0
2016-May-25 07:08N 35°27' E 139°39'0 0.0
2016-May-25 06:33N 35°27' E 139°39'0 0.0
2016-May-25 05:34N 35°27' E 139°39'0 0.0
2016-May-25 04:34N 35°27' E 139°39'0 0.0
2016-May-25 03:34N 35°27' E 139°39'0 0.0
2016-May-25 02:34N 35°27' E 139°39'4 4.0
2016-May-25 01:34N 35°28' E 139°44'3 3.3
2016-May-25 00:33N 35°31' E 139°46'7 6.7
2016-May-24 23:34N 35°27' E 139°39'0 0.0
2016-May-24 22:34N 35°27' E 139°39'3 0.1
2016-May-23 23:33N 35°24' E 139°42'1 1.4
2016-May-23 22:33N 35°23' E 139°41'3 2.9
2016-May-23 21:33N 35°26' E 139°42'3 2.6
2016-May-23 20:33N 35°28' E 139°43'1 0.7
2016-May-23 19:33N 35°27' E 139°42'0 0.0
2016-May-23 18:33N 35°27' E 139°42'0 0.0
2016-May-23 17:33N 35°27' E 139°42'1 1.5
2016-May-23 16:33N 35°27' E 139°41'1 0.8
2016-May-23 15:33N 35°27' E 139°39'0 0.0
2016-May-23 14:33N 35°27' E 139°39'0 0.0
2016-May-23 13:33N 35°27' E 139°39'0 0.0
2016-May-23 12:33N 35°27' E 139°39'0 0.0
2016-May-23 11:33N 35°27' E 139°39'1 1.4
2016-May-23 10:33N 35°26' E 139°41'1 1.4
2016-May-23 09:34N 35°27' E 139°42'0 0.2
2016-May-23 08:34N 35°27' E 139°42'1 1.1
2016-May-23 07:34N 35°27' E 139°41'1 0.9
2016-May-23 06:34N 35°27' E 139°42'3 3.1
2016-May-23 05:33N 35°24' E 139°40'3 3.0
2016-May-23 04:34N 35°27' E 139°40'0 0.4
2016-May-23 03:33N 35°27' E 139°39'0 0.0
2016-May-23 02:34N 35°27' E 139°39'0 0.0
2016-May-23 01:33N 35°27' E 139°39'0 0.0
2016-May-23 00:33N 35°27' E 139°39'0 0.0
2016-May-22 23:33N 35°27' E 139°39'0 0.0
2016-May-22 22:33N 35°27' E 139°39'0 0.0
2016-May-21 22:09N 35°27' E 139°39'0 0.0
2016-May-21 21:33N 35°27' E 139°39'2 1.9
2016-May-21 20:34N 35°28' E 139°42'0 0.4
2016-May-21 19:33N 35°28' E 139°42'0 0.0
2016-May-21 18:33N 35°28' E 139°42'2 1.7
2016-May-21 17:34N 35°26' E 139°41'0 0.3
2016-May-21 16:34N 35°27' E 139°41'0 0.0
2016-May-21 15:33N 35°27' E 139°41'0 0.3
2016-May-21 14:33N 35°27' E 139°41'1 1.1
2016-May-21 13:33N 35°27' E 139°39'0 0.0
2016-May-21 12:33N 35°27' E 139°39'0 0.0
2016-May-21 11:33N 35°27' E 139°39'0 0.0
2016-May-21 10:33N 35°27' E 139°39'5 5.4
2016-May-21 09:34N 35°30' E 139°45'4 3.6
2016-May-21 08:33N 35°27' E 139°44'4 3.5
2016-May-21 07:34N 35°27' E 139°40'0 0.2
2016-May-21 06:33N 35°27' E 139°39'0 0.0
2016-May-21 05:33N 35°27' E 139°39'0 0.0
2016-May-21 04:33N 35°27' E 139°39'0 0.0
2016-May-21 03:33N 35°27' E 139°39'0 0.0
2016-May-21 02:33N 35°27' E 139°39'0 0.0
2016-May-21 01:33N 35°27' E 139°39'0 0.0
2016-May-21 00:33N 35°27' E 139°39'0 0.0
2016-May-20 23:33N 35°27' E 139°39'0 0.0
2016-May-20 22:33N 35°27' E 139°39'0 0.0
2016-May-20 21:33N 35°27' E 139°39'0 0.0
2016-May-20 07:15N 35°27' E 139°39'0 0.0
2016-May-20 06:34N 35°27' E 139°39'0 0.0
2016-May-20 05:34N 35°27' E 139°39'0 0.0
2016-May-20 04:33N 35°27' E 139°39'0 0.0
2016-May-20 03:33N 35°27' E 139°39'0 0.0
2016-May-20 02:33N 35°27' E 139°39'0 0.0
2016-May-20 01:34N 35°27' E 139°39'5 4.6
2016-May-20 00:33N 35°30' E 139°44'1 1.1
2016-May-19 23:33N 35°30' E 139°45'2 1.5
2016-May-19 22:33N 35°29' E 139°46'0 0.4
2016-May-19 21:33N 35°29' E 139°46'3 3.1
2016-May-19 20:34N 35°29' E 139°43'3 3.4
2016-May-19 19:34N 35°27' E 139°39'0 0.0
2016-May-19 06:21N 35°27' E 139°39'6 7.2
2016-May-19 05:34N 35°21' E 139°41'5 0.1
2016-May-17 02:16N 35°16' E 139°41'4 5.7
2016-May-17 01:31N 35°21' E 139°41'4 4.4
2016-May-17 00:33N 35°17' E 139°41'  
Track history (hours):
 
Tides and Currents Weather Stations Pressure Air Temp Water Temp Dewpoint Dewpoint Depression Visibility Wind Speed Wind Dir Waves Ship Positions

Akebono

Last reported at 2016-May-26 22:34 UTC. Time now 2016-May-26 22:35 UTC.
Position N 35°26' E 139°44'.

Length 33 m; draft 4.4 m.

Type: Tug. MMSI: 431000233.

Date/timePositionNaut miles runAvg speedWind from/ knotsBaromVisibWave heightAir tempDewpointWater temp
2016-May-26 22:34N 35°26' E 139°44'2 2.3
2016-May-26 21:33N 35°28' E 139°42'0 0.5
2016-May-26 20:34N 35°28' E 139°41'2 0.2
2016-May-26 11:30N 35°27' E 139°39'0 0.0
2016-May-26 10:34N 35°27' E 139°39'2 1.6
2016-May-26 09:33N 35°27' E 139°41'1 0.6
2016-May-26 08:33N 35°27' E 139°41'1 1.2
2016-May-26 07:33N 35°26' E 139°42'1 1.3
2016-May-26 06:33N 35°27' E 139°41'1 1.2
2016-May-26 05:33N 35°27' E 139°39'0 0.0
2016-May-26 04:33N 35°27' E 139°39'0 0.0
2016-May-26 03:33N 35°27' E 139°39'0 0.0
2016-May-26 02:33N 35°27' E 139°39'0 0.0
2016-May-26 01:33N 35°27' E 139°39'0 0.0
2016-May-26 00:33N 35°27' E 139°39'0 0.0
2016-May-25 23:33N 35°27' E 139°39'2 1.9
2016-May-25 22:33N 35°27' E 139°42'2 1.9
2016-May-25 21:33N 35°27' E 139°39'0 0.0
2016-May-25 20:33N 35°27' E 139°39'0 0.0
2016-May-25 07:08N 35°27' E 139°39'0 0.0
2016-May-25 06:33N 35°27' E 139°39'0 0.0
2016-May-25 05:34N 35°27' E 139°39'0 0.0
2016-May-25 04:34N 35°27' E 139°39'0 0.0
2016-May-25 03:34N 35°27' E 139°39'0 0.0
2016-May-25 02:34N 35°27' E 139°39'4 4.0
2016-May-25 01:34N 35°28' E 139°44'3 3.3
2016-May-25 00:33N 35°31' E 139°46'7 6.7
2016-May-24 23:34N 35°27' E 139°39'0 0.0
2016-May-24 22:34N 35°27' E 139°39'3 0.1
2016-May-23 23:33N 35°24' E 139°42'1 1.4
2016-May-23 22:33N 35°23' E 139°41'3 2.9
2016-May-23 21:33N 35°26' E 139°42'3 2.6
2016-May-23 20:33N 35°28' E 139°43'1 0.7
2016-May-23 19:33N 35°27' E 139°42'0 0.0
2016-May-23 18:33N 35°27' E 139°42'0 0.0
2016-May-23 17:33N 35°27' E 139°42'1 1.5
2016-May-23 16:33N 35°27' E 139°41'1 0.8
2016-May-23 15:33N 35°27' E 139°39'0 0.0
2016-May-23 14:33N 35°27' E 139°39'0 0.0
2016-May-23 13:33N 35°27' E 139°39'0 0.0
2016-May-23 12:33N 35°27' E 139°39'0 0.0
2016-May-23 11:33N 35°27' E 139°39'1 1.4
2016-May-23 10:33N 35°26' E 139°41'1 1.4
2016-May-23 09:34N 35°27' E 139°42'0 0.2
2016-May-23 08:34N 35°27' E 139°42'1 1.1
2016-May-23 07:34N 35°27' E 139°41'1 0.9
2016-May-23 06:34N 35°27' E 139°42'3 3.1
2016-May-23 05:33N 35°24' E 139°40'3 3.0
2016-May-23 04:34N 35°27' E 139°40'0 0.4
2016-May-23 03:33N 35°27' E 139°39'0 0.0
2016-May-23 02:34N 35°27' E 139°39'0 0.0
2016-May-23 01:33N 35°27' E 139°39'0 0.0
2016-May-23 00:33N 35°27' E 139°39'0 0.0
2016-May-22 23:33N 35°27' E 139°39'0 0.0
2016-May-22 22:33N 35°27' E 139°39'0 0.0
2016-May-21 22:09N 35°27' E 139°39'0 0.0
2016-May-21 21:33N 35°27' E 139°39'2 1.9
2016-May-21 20:34N 35°28' E 139°42'0 0.4
2016-May-21 19:33N 35°28' E 139°42'0 0.0
2016-May-21 18:33N 35°28' E 139°42'2 1.7
2016-May-21 17:34N 35°26' E 139°41'0 0.3
2016-May-21 16:34N 35°27' E 139°41'0 0.0
2016-May-21 15:33N 35°27' E 139°41'0 0.3
2016-May-21 14:33N 35°27' E 139°41'1 1.1
2016-May-21 13:33N 35°27' E 139°39'0 0.0
2016-May-21 12:33N 35°27' E 139°39'0 0.0
2016-May-21 11:33N 35°27' E 139°39'0 0.0
2016-May-21 10:33N 35°27' E 139°39'5 5.4
2016-May-21 09:34N 35°30' E 139°45'4 3.6
2016-May-21 08:33N 35°27' E 139°44'4 3.5
2016-May-21 07:34N 35°27' E 139°40'0 0.2
2016-May-21 06:33N 35°27' E 139°39'0 0.0
2016-May-21 05:33N 35°27' E 139°39'0 0.0
2016-May-21 04:33N 35°27' E 139°39'0 0.0
2016-May-21 03:33N 35°27' E 139°39'0 0.0
2016-May-21 02:33N 35°27' E 139°39'0 0.0
2016-May-21 01:33N 35°27' E 139°39'0 0.0
2016-May-21 00:33N 35°27' E 139°39'0 0.0
2016-May-20 23:33N 35°27' E 139°39'0 0.0
2016-May-20 22:33N 35°27' E 139°39'0 0.0
2016-May-20 21:33N 35°27' E 139°39'0 0.0
2016-May-20 07:15N 35°27' E 139°39'0 0.0
2016-May-20 06:34N 35°27' E 139°39'0 0.0
2016-May-20 05:34N 35°27' E 139°39'0 0.0
2016-May-20 04:33N 35°27' E 139°39'0 0.0
2016-May-20 03:33N 35°27' E 139°39'0 0.0
2016-May-20 02:33N 35°27' E 139°39'0 0.0
2016-May-20 01:34N 35°27' E 139°39'5 4.6
2016-May-20 00:33N 35°30' E 139°44'1 1.1
2016-May-19 23:33N 35°30' E 139°45'2 1.5
2016-May-19 22:33N 35°29' E 139°46'0 0.4
2016-May-19 21:33N 35°29' E 139°46'3 3.1
2016-May-19 20:34N 35°29' E 139°43'3 3.4
2016-May-19 19:34N 35°27' E 139°39'0 0.0
2016-May-19 06:21N 35°27' E 139°39'6 7.2
2016-May-19 05:34N 35°21' E 139°41'5 0.1
2016-May-17 02:16N 35°16' E 139°41'4 5.7
2016-May-17 01:31N 35°21' E 139°41'4 4.4
2016-May-17 00:33N 35°17' E 139°41'  

Dump ship's entire track history